Terminal Aerodrome Forecast
Issued by NWS Brownsville, TX

Home | Current Version | Previous Version | Text Only | Print | Product List | Glossary On
Versions: 1 2 3 4 5 6 7 8 9 10 11 12 13 14 15 16 17 18 19 20 21 22 23 24
000
FTUS44 KBRO 230500 RRA
TAFBRO
TAF
KBRO 230542Z 2306/2406 VRB04KT P6SM FEW025
      TEMPO 2311/2314 2SM BR
     FM231600 09010KT P6SM SCT025 BKN040
     FM240300 07004KT P6SM FEW025=

USA.gov is the U.S. government's official web portal to all federal, state and local government web resources and services.